sensor_id;sensor_type;location;lat;lon;timestamp;P1;durP1;ratioP1;P2;durP2;ratioP2
15673;SDS011;7937;48.090;16.212;2022-12-07T00:00:26;3.10;;;2.80;;
15673;SDS011;7937;48.090;16.212;2022-12-07T00:03:28;4.13;;;2.63;;
15673;SDS011;7937;48.090;16.212;2022-12-07T00:06:37;3.93;;;3.33;;
15673;SDS011;7937;48.090;16.212;2022-12-07T00:09:41;5.27;;;4.30;;
15673;SDS011;7937;48.090;16.212;2022-12-07T00:12:43;5.00;;;4.30;;
15673;SDS011;7937;48.090;16.212;2022-12-07T00:15:45;5.47;;;4.50;;
15673;SDS011;7937;48.090;16.212;2022-12-07T00:18:47;4.90;;;4.30;;
15673;SDS011;7937;48.090;16.212;2022-12-07T00:21:50;5.10;;;4.60;;
15673;SDS011;7937;48.090;16.212;2022-12-07T00:24:52;5.80;;;4.60;;
15673;SDS011;7937;48.090;16.212;2022-12-07T00:27:54;6.03;;;4.93;;
15673;SDS011;7937;48.090;16.212;2022-12-07T00:31:04;6.83;;;5.53;;
15673;SDS011;7937;48.090;16.212;2022-12-07T00:34:12;5.77;;;5.03;;
15673;SDS011;7937;48.090;16.212;2022-12-07T00:37:16;6.10;;;5.00;;
15673;SDS011;7937;48.090;16.212;2022-12-07T00:40:19;6.40;;;5.27;;
15673;SDS011;7937;48.090;16.212;2022-12-07T00:43:21;6.00;;;5.13;;
15673;SDS011;7937;48.090;16.212;2022-12-07T00:46:23;6.30;;;4.90;;
15673;SDS011;7937;48.090;16.212;2022-12-07T00:49:26;6.47;;;5.70;;
15673;SDS011;7937;48.090;16.212;2022-12-07T00:52:28;8.17;;;5.60;;
15673;SDS011;7937;48.090;16.212;2022-12-07T00:55:33;7.23;;;6.20;;
15673;SDS011;7937;48.090;16.212;2022-12-07T00:58:36;7.53;;;5.53;;
15673;SDS011;7937;48.090;16.212;2022-12-07T01:01:38;7.97;;;6.13;;
15673;SDS011;7937;48.090;16.212;2022-12-07T01:04:40;6.77;;;5.17;;
15673;SDS011;7937;48.090;16.212;2022-12-07T01:07:42;8.03;;;6.67;;
15673;SDS011;7937;48.090;16.212;2022-12-07T01:10:44;7.43;;;6.17;;
15673;SDS011;7937;48.090;16.212;2022-12-07T01:13:46;7.60;;;5.93;;
15673;SDS011;7937;48.090;16.212;2022-12-07T01:16:48;8.67;;;6.80;;
15673;SDS011;7937;48.090;16.212;2022-12-07T01:19:50;8.17;;;6.70;;
15673;SDS011;7937;48.090;16.212;2022-12-07T01:22:52;8.47;;;6.87;;
15673;SDS011;7937;48.090;16.212;2022-12-07T01:25:55;7.90;;;7.00;;
15673;SDS011;7937;48.090;16.212;2022-12-07T01:29:02;10.37;;;6.67;;
15673;SDS011;7937;48.090;16.212;2022-12-07T01:32:04;10.10;;;8.13;;
15673;SDS011;7937;48.090;16.212;2022-12-07T01:35:07;8.90;;;7.50;;
15673;SDS011;7937;48.090;16.212;2022-12-07T01:38:09;9.63;;;7.60;;
15673;SDS011;7937;48.090;16.212;2022-12-07T01:41:11;9.30;;;6.70;;
15673;SDS011;7937;48.090;16.212;2022-12-07T01:44:28;9.13;;;7.10;;
15673;SDS011;7937;48.090;16.212;2022-12-07T01:47:34;7.67;;;6.47;;
15673;SDS011;7937;48.090;16.212;2022-12-07T01:50:36;10.17;;;7.77;;
15673;SDS011;7937;48.090;16.212;2022-12-07T01:53:42;9.63;;;8.20;;
15673;SDS011;7937;48.090;16.212;2022-12-07T01:56:49;13.73;;;9.03;;
15673;SDS011;7937;48.090;16.212;2022-12-07T01:59:54;11.73;;;9.30;;
15673;SDS011;7937;48.090;16.212;2022-12-07T02:06:25;11.43;;;9.27;;
15673;SDS011;7937;48.090;16.212;2022-12-07T02:09:28;12.70;;;8.97;;
15673;SDS011;7937;48.090;16.212;2022-12-07T02:12:29;11.27;;;8.27;;
15673;SDS011;7937;48.090;16.212;2022-12-07T02:32:14;11.70;;;7.70;;
15673;SDS011;7937;48.090;16.212;2022-12-07T02:42:03;11.30;;;8.30;;
15673;SDS011;7937;48.090;16.212;2022-12-07T02:45:12;7.67;;;6.40;;
15673;SDS011;7937;48.090;16.212;2022-12-07T02:48:17;8.83;;;6.93;;
15673;SDS011;7937;48.090;16.212;2022-12-07T02:51:21;12.10;;;8.80;;
15673;SDS011;7937;48.090;16.212;2022-12-07T02:54:24;10.10;;;7.97;;
15673;SDS011;7937;48.090;16.212;2022-12-07T03:08:04;9.83;;;7.60;;
15673;SDS011;7937;48.090;16.212;2022-12-07T03:11:10;10.03;;;7.67;;
15673;SDS011;7937;48.090;16.212;2022-12-07T03:14:24;10.60;;;7.57;;
15673;SDS011;7937;48.090;16.212;2022-12-07T03:17:32;10.70;;;7.77;;
15673;SDS011;7937;48.090;16.212;2022-12-07T03:20:36;10.53;;;7.87;;
15673;SDS011;7937;48.090;16.212;2022-12-07T03:23:42;10.37;;;7.27;;
15673;SDS011;7937;48.090;16.212;2022-12-07T03:26:55;9.73;;;7.30;;
15673;SDS011;7937;48.090;16.212;2022-12-07T03:33:11;9.10;;;6.60;;
15673;SDS011;7937;48.090;16.212;2022-12-07T03:40:07;9.70;;;6.73;;
15673;SDS011;7937;48.090;16.212;2022-12-07T03:43:17;10.70;;;7.60;;
15673;SDS011;7937;48.090;16.212;2022-12-07T03:46:24;9.83;;;7.73;;
15673;SDS011;7937;48.090;16.212;2022-12-07T03:53:22;10.70;;;7.80;;
15673;SDS011;7937;48.090;16.212;2022-12-07T03:56:31;12.37;;;8.37;;
15673;SDS011;7937;48.090;16.212;2022-12-07T03:59:34;10.07;;;7.57;;
15673;SDS011;7937;48.090;16.212;2022-12-07T04:02:39;11.90;;;7.93;;
15673;SDS011;7937;48.090;16.212;2022-12-07T04:05:42;11.53;;;7.80;;
15673;SDS011;7937;48.090;16.212;2022-12-07T04:08:45;10.80;;;7.70;;
15673;SDS011;7937;48.090;16.212;2022-12-07T04:11:47;11.17;;;7.73;;
15673;SDS011;7937;48.090;16.212;2022-12-07T04:14:49;10.37;;;7.63;;
15673;SDS011;7937;48.090;16.212;2022-12-07T04:17:52;9.50;;;7.53;;
15673;SDS011;7937;48.090;16.212;2022-12-07T04:20:56;10.87;;;7.17;;
15673;SDS011;7937;48.090;16.212;2022-12-07T04:23:58;10.63;;;7.90;;
15673;SDS011;7937;48.090;16.212;2022-12-07T04:27:00;10.13;;;7.47;;
15673;SDS011;7937;48.090;16.212;2022-12-07T04:30:02;10.60;;;7.90;;
15673;SDS011;7937;48.090;16.212;2022-12-07T04:33:05;8.63;;;6.90;;
15673;SDS011;7937;48.090;16.212;2022-12-07T04:36:07;10.80;;;7.93;;
15673;SDS011;7937;48.090;16.212;2022-12-07T04:39:26;11.43;;;7.53;;
15673;SDS011;7937;48.090;16.212;2022-12-07T04:42:29;11.83;;;7.43;;
15673;SDS011;7937;48.090;16.212;2022-12-07T04:45:31;12.43;;;7.80;;
15673;SDS011;7937;48.090;16.212;2022-12-07T04:48:33;11.13;;;8.40;;
15673;SDS011;7937;48.090;16.212;2022-12-07T04:51:36;13.27;;;7.83;;
15673;SDS011;7937;48.090;16.212;2022-12-07T04:54:38;10.13;;;7.23;;
15673;SDS011;7937;48.090;16.212;2022-12-07T04:57:40;12.37;;;7.90;;
15673;SDS011;7937;48.090;16.212;2022-12-07T05:00:42;10.27;;;7.23;;
15673;SDS011;7937;48.090;16.212;2022-12-07T05:03:44;9.40;;;6.53;;
15673;SDS011;7937;48.090;16.212;2022-12-07T05:06:47;9.67;;;7.13;;
15673;SDS011;7937;48.090;16.212;2022-12-07T05:09:49;9.20;;;7.10;;
15673;SDS011;7937;48.090;16.212;2022-12-07T05:12:51;10.97;;;6.80;;
15673;SDS011;7937;48.090;16.212;2022-12-07T05:15:53;9.60;;;7.10;;
15673;SDS011;7937;48.090;16.212;2022-12-07T05:18:55;12.50;;;7.97;;
15673;SDS011;7937;48.090;16.212;2022-12-07T05:21:57;9.73;;;6.50;;
15673;SDS011;7937;48.090;16.212;2022-12-07T05:24:59;12.80;;;7.77;;
15673;SDS011;7937;48.090;16.212;2022-12-07T05:28:01;11.30;;;7.60;;
15673;SDS011;7937;48.090;16.212;2022-12-07T05:31:04;10.03;;;7.23;;
15673;SDS011;7937;48.090;16.212;2022-12-07T05:34:06;10.23;;;6.90;;
15673;SDS011;7937;48.090;16.212;2022-12-07T05:37:08;9.53;;;6.83;;
15673;SDS011;7937;48.090;16.212;2022-12-07T05:40:10;10.53;;;6.67;;
15673;SDS011;7937;48.090;16.212;2022-12-07T05:43:13;10.57;;;6.50;;
15673;SDS011;7937;48.090;16.212;2022-12-07T05:46:15;12.30;;;7.07;;
15673;SDS011;7937;48.090;16.212;2022-12-07T05:49:17;9.43;;;6.93;;
15673;SDS011;7937;48.090;16.212;2022-12-07T05:52:19;10.73;;;7.47;;
15673;SDS011;7937;48.090;16.212;2022-12-07T05:55:21;7.70;;;5.87;;
15673;SDS011;7937;48.090;16.212;2022-12-07T05:58:23;7.43;;;5.57;;
15673;SDS011;7937;48.090;16.212;2022-12-07T06:01:44;8.13;;;5.80;;
15673;SDS011;7937;48.090;16.212;2022-12-07T06:04:46;8.33;;;5.73;;
15673;SDS011;7937;48.090;16.212;2022-12-07T06:07:48;10.23;;;6.73;;
15673;SDS011;7937;48.090;16.212;2022-12-07T06:10:51;7.33;;;5.27;;
15673;SDS011;7937;48.090;16.212;2022-12-07T06:14:13;7.10;;;5.30;;
15673;SDS011;7937;48.090;16.212;2022-12-07T06:17:15;8.43;;;5.37;;
15673;SDS011;7937;48.090;16.212;2022-12-07T06:20:17;10.00;;;5.90;;
15673;SDS011;7937;48.090;16.212;2022-12-07T06:23:19;7.13;;;5.60;;
15673;SDS011;7937;48.090;16.212;2022-12-07T06:26:21;6.27;;;4.53;;
15673;SDS011;7937;48.090;16.212;2022-12-07T06:29:24;7.20;;;4.83;;
15673;SDS011;7937;48.090;16.212;2022-12-07T06:32:26;8.53;;;5.03;;
15673;SDS011;7937;48.090;16.212;2022-12-07T06:35:28;6.73;;;4.73;;
15673;SDS011;7937;48.090;16.212;2022-12-07T06:38:30;7.37;;;5.03;;
15673;SDS011;7937;48.090;16.212;2022-12-07T06:41:32;7.37;;;5.93;;
15673;SDS011;7937;48.090;16.212;2022-12-07T06:44:34;7.00;;;4.50;;
15673;SDS011;7937;48.090;16.212;2022-12-07T06:47:36;7.57;;;4.80;;
15673;SDS011;7937;48.090;16.212;2022-12-07T06:50:45;6.60;;;5.20;;
15673;SDS011;7937;48.090;16.212;2022-12-07T06:53:55;7.50;;;4.80;;
15673;SDS011;7937;48.090;16.212;2022-12-07T06:56:58;6.50;;;5.13;;
15673;SDS011;7937;48.090;16.212;2022-12-07T07:00:00;6.27;;;5.13;;
15673;SDS011;7937;48.090;16.212;2022-12-07T07:03:03;5.80;;;4.80;;
15673;SDS011;7937;48.090;16.212;2022-12-07T07:06:05;5.60;;;4.60;;
15673;SDS011;7937;48.090;16.212;2022-12-07T07:09:08;6.43;;;4.80;;
15673;SDS011;7937;48.090;16.212;2022-12-07T07:12:11;8.53;;;5.30;;
15673;SDS011;7937;48.090;16.212;2022-12-07T07:15:13;6.97;;;4.90;;
15673;SDS011;7937;48.090;16.212;2022-12-07T07:18:15;7.00;;;5.00;;
15673;SDS011;7937;48.090;16.212;2022-12-07T07:21:17;6.40;;;4.97;;
15673;SDS011;7937;48.090;16.212;2022-12-07T07:24:19;6.30;;;4.63;;
15673;SDS011;7937;48.090;16.212;2022-12-07T07:27:21;6.07;;;4.57;;
15673;SDS011;7937;48.090;16.212;2022-12-07T07:30:23;8.90;;;4.97;;
15673;SDS011;7937;48.090;16.212;2022-12-07T07:33:25;6.57;;;5.13;;
15673;SDS011;7937;48.090;16.212;2022-12-07T07:36:27;4.83;;;3.70;;
15673;SDS011;7937;48.090;16.212;2022-12-07T07:39:29;5.87;;;4.20;;
15673;SDS011;7937;48.090;16.212;2022-12-07T07:42:31;5.00;;;3.83;;
15673;SDS011;7937;48.090;16.212;2022-12-07T07:45:33;4.97;;;4.13;;
15673;SDS011;7937;48.090;16.212;2022-12-07T07:48:35;5.43;;;4.53;;
15673;SDS011;7937;48.090;16.212;2022-12-07T07:51:37;5.53;;;4.20;;
15673;SDS011;7937;48.090;16.212;2022-12-07T07:54:39;4.67;;;3.93;;
15673;SDS011;7937;48.090;16.212;2022-12-07T07:57:42;5.93;;;4.43;;
15673;SDS011;7937;48.090;16.212;2022-12-07T08:00:46;5.70;;;3.67;;
15673;SDS011;7937;48.090;16.212;2022-12-07T08:03:48;6.23;;;4.27;;
15673;SDS011;7937;48.090;16.212;2022-12-07T08:06:51;6.27;;;3.73;;
15673;SDS011;7937;48.090;16.212;2022-12-07T08:09:53;4.00;;;3.33;;
15673;SDS011;7937;48.090;16.212;2022-12-07T08:12:55;4.90;;;3.93;;
15673;SDS011;7937;48.090;16.212;2022-12-07T08:16:13;4.13;;;3.60;;
15673;SDS011;7937;48.090;16.212;2022-12-07T08:19:16;5.10;;;4.00;;
15673;SDS011;7937;48.090;16.212;2022-12-07T08:22:18;4.87;;;3.93;;
15673;SDS011;7937;48.090;16.212;2022-12-07T08:25:20;4.10;;;3.70;;
15673;SDS011;7937;48.090;16.212;2022-12-07T08:28:26;5.00;;;4.20;;
15673;SDS011;7937;48.090;16.212;2022-12-07T08:31:28;5.70;;;3.67;;
15673;SDS011;7937;48.090;16.212;2022-12-07T08:34:30;3.90;;;3.40;;
15673;SDS011;7937;48.090;16.212;2022-12-07T08:37:32;3.90;;;3.50;;
15673;SDS011;7937;48.090;16.212;2022-12-07T08:40:34;3.77;;;3.10;;
15673;SDS011;7937;48.090;16.212;2022-12-07T08:43:36;4.23;;;3.20;;
15673;SDS011;7937;48.090;16.212;2022-12-07T08:46:43;3.53;;;3.23;;
15673;SDS011;7937;48.090;16.212;2022-12-07T08:49:50;4.60;;;3.23;;
15673;SDS011;7937;48.090;16.212;2022-12-07T08:52:55;3.73;;;3.33;;
15673;SDS011;7937;48.090;16.212;2022-12-07T08:56:00;3.30;;;3.00;;
15673;SDS011;7937;48.090;16.212;2022-12-07T08:59:02;4.07;;;3.67;;
15673;SDS011;7937;48.090;16.212;2022-12-07T09:02:06;5.37;;;3.80;;
15673;SDS011;7937;48.090;16.212;2022-12-07T09:05:08;4.60;;;4.03;;
15673;SDS011;7937;48.090;16.212;2022-12-07T09:08:16;3.37;;;3.03;;
15673;SDS011;7937;48.090;16.212;2022-12-07T09:11:19;4.23;;;3.40;;
15673;SDS011;7937;48.090;16.212;2022-12-07T09:14:28;3.63;;;3.20;;
15673;SDS011;7937;48.090;16.212;2022-12-07T09:17:34;4.47;;;3.30;;
15673;SDS011;7937;48.090;16.212;2022-12-07T09:20:37;3.90;;;3.50;;
15673;SDS011;7937;48.090;16.212;2022-12-07T09:23:40;4.40;;;3.40;;
15673;SDS011;7937;48.090;16.212;2022-12-07T09:26:45;6.20;;;3.53;;
15673;SDS011;7937;48.090;16.212;2022-12-07T09:29:48;4.23;;;3.60;;
15673;SDS011;7937;48.090;16.212;2022-12-07T09:32:50;3.87;;;3.40;;
15673;SDS011;7937;48.090;16.212;2022-12-07T09:35:53;3.30;;;3.00;;
15673;SDS011;7937;48.090;16.212;2022-12-07T09:38:56;3.97;;;3.57;;
15673;SDS011;7937;48.090;16.212;2022-12-07T09:41:59;3.97;;;3.57;;
15673;SDS011;7937;48.090;16.212;2022-12-07T09:45:06;3.53;;;3.17;;
15673;SDS011;7937;48.090;16.212;2022-12-07T09:48:22;4.70;;;3.60;;
15673;SDS011;7937;48.090;16.212;2022-12-07T09:51:29;4.10;;;3.70;;
15673;SDS011;7937;48.090;16.212;2022-12-07T09:54:33;4.37;;;3.93;;
15673;SDS011;7937;48.090;16.212;2022-12-07T09:57:38;3.93;;;3.50;;
15673;SDS011;7937;48.090;16.212;2022-12-07T10:00:40;3.30;;;3.00;;
15673;SDS011;7937;48.090;16.212;2022-12-07T10:03:45;3.50;;;3.17;;
15673;SDS011;7937;48.090;16.212;2022-12-07T10:06:54;3.50;;;3.20;;
15673;SDS011;7937;48.090;16.212;2022-12-07T10:09:56;3.30;;;3.00;;
15673;SDS011;7937;48.090;16.212;2022-12-07T10:13:02;4.23;;;3.20;;
15673;SDS011;7937;48.090;16.212;2022-12-07T10:19:28;3.40;;;3.10;;
15673;SDS011;7937;48.090;16.212;2022-12-07T10:22:32;3.47;;;3.17;;
15673;SDS011;7937;48.090;16.212;2022-12-07T10:25:35;5.37;;;3.00;;
15673;SDS011;7937;48.090;16.212;2022-12-07T10:28:40;3.43;;;3.13;;
15673;SDS011;7937;48.090;16.212;2022-12-07T10:31:43;4.10;;;3.57;;
15673;SDS011;7937;48.090;16.212;2022-12-07T10:34:47;4.10;;;3.70;;
15673;SDS011;7937;48.090;16.212;2022-12-07T10:37:53;4.23;;;3.83;;
15673;SDS011;7937;48.090;16.212;2022-12-07T10:41:03;4.30;;;3.90;;
15673;SDS011;7937;48.090;16.212;2022-12-07T10:44:09;4.10;;;3.53;;
15673;SDS011;7937;48.090;16.212;2022-12-07T10:54:11;3.80;;;3.40;;
15673;SDS011;7937;48.090;16.212;2022-12-07T11:04:34;4.17;;;3.50;;
15673;SDS011;7937;48.090;16.212;2022-12-07T11:11:38;4.77;;;3.70;;
15673;SDS011;7937;48.090;16.212;2022-12-07T11:15:01;4.03;;;3.60;;
15673;SDS011;7937;48.090;16.212;2022-12-07T11:18:18;4.63;;;3.53;;
15673;SDS011;7937;48.090;16.212;2022-12-07T11:31:03;4.07;;;3.50;;
15673;SDS011;7937;48.090;16.212;2022-12-07T11:37:32;3.97;;;3.17;;
15673;SDS011;7937;48.090;16.212;2022-12-07T11:40:40;3.90;;;3.10;;
15673;SDS011;7937;48.090;16.212;2022-12-07T11:43:52;4.27;;;3.00;;
15673;SDS011;7937;48.090;16.212;2022-12-07T11:47:11;3.20;;;2.83;;
15673;SDS011;7937;48.090;16.212;2022-12-07T11:56:48;3.67;;;3.23;;
15673;SDS011;7937;48.090;16.212;2022-12-07T11:59:53;3.30;;;2.93;;
15673;SDS011;7937;48.090;16.212;2022-12-07T12:03:15;5.37;;;3.73;;
15673;SDS011;7937;48.090;16.212;2022-12-07T12:06:29;3.87;;;3.30;;
15673;SDS011;7937;48.090;16.212;2022-12-07T12:09:33;4.37;;;3.60;;
15673;SDS011;7937;48.090;16.212;2022-12-07T12:20:29;4.87;;;3.47;;
15673;SDS011;7937;48.090;16.212;2022-12-07T12:23:43;4.57;;;3.83;;
15673;SDS011;7937;48.090;16.212;2022-12-07T12:26:51;4.13;;;3.73;;
15673;SDS011;7937;48.090;16.212;2022-12-07T12:29:59;3.97;;;3.57;;
15673;SDS011;7937;48.090;16.212;2022-12-07T12:33:14;3.93;;;3.17;;
15673;SDS011;7937;48.090;16.212;2022-12-07T12:39:34;3.40;;;2.90;;
15673;SDS011;7937;48.090;16.212;2022-12-07T12:42:49;4.83;;;3.77;;
15673;SDS011;7937;48.090;16.212;2022-12-07T12:49:36;5.03;;;3.37;;
15673;SDS011;7937;48.090;16.212;2022-12-07T12:53:27;4.47;;;3.70;;
15673;SDS011;7937;48.090;16.212;2022-12-07T12:56:33;3.97;;;3.53;;
15673;SDS011;7937;48.090;16.212;2022-12-07T13:02:56;4.43;;;3.87;;
15673;SDS011;7937;48.090;16.212;2022-12-07T13:06:35;4.23;;;3.47;;
15673;SDS011;7937;48.090;16.212;2022-12-07T13:09:29;3.60;;;3.30;;
15673;SDS011;7937;48.090;16.212;2022-12-07T13:12:35;5.43;;;4.33;;
15673;SDS011;7937;48.090;16.212;2022-12-07T13:15:38;4.00;;;3.37;;
15673;SDS011;7937;48.090;16.212;2022-12-07T13:18:44;4.37;;;3.77;;
15673;SDS011;7937;48.090;16.212;2022-12-07T13:21:46;4.70;;;4.00;;
15673;SDS011;7937;48.090;16.212;2022-12-07T13:24:48;5.00;;;4.47;;
15673;SDS011;7937;48.090;16.212;2022-12-07T13:27:54;4.47;;;4.07;;
15673;SDS011;7937;48.090;16.212;2022-12-07T13:34:39;5.97;;;4.10;;
15673;SDS011;7937;48.090;16.212;2022-12-07T13:37:42;4.93;;;4.40;;
15673;SDS011;7937;48.090;16.212;2022-12-07T13:41:01;8.10;;;3.97;;
15673;SDS011;7937;48.090;16.212;2022-12-07T13:44:13;5.17;;;4.00;;
15673;SDS011;7937;48.090;16.212;2022-12-07T13:50:29;4.63;;;3.93;;
15673;SDS011;7937;48.090;16.212;2022-12-07T13:53:33;4.73;;;3.80;;
15673;SDS011;7937;48.090;16.212;2022-12-07T13:56:35;4.93;;;3.70;;
15673;SDS011;7937;48.090;16.212;2022-12-07T13:59:38;4.73;;;4.10;;
15673;SDS011;7937;48.090;16.212;2022-12-07T14:03:02;3.87;;;3.47;;
15673;SDS011;7937;48.090;16.212;2022-12-07T14:12:23;4.63;;;3.40;;
15673;SDS011;7937;48.090;16.212;2022-12-07T14:15:33;3.90;;;3.40;;
15673;SDS011;7937;48.090;16.212;2022-12-07T14:18:37;4.20;;;3.33;;
15673;SDS011;7937;48.090;16.212;2022-12-07T14:21:41;3.93;;;3.30;;
15673;SDS011;7937;48.090;16.212;2022-12-07T14:24:43;3.80;;;3.20;;
15673;SDS011;7937;48.090;16.212;2022-12-07T14:27:50;5.03;;;3.90;;
15673;SDS011;7937;48.090;16.212;2022-12-07T14:30:58;3.77;;;3.27;;
15673;SDS011;7937;48.090;16.212;2022-12-07T14:34:01;3.57;;;3.20;;
15673;SDS011;7937;48.090;16.212;2022-12-07T14:37:03;4.13;;;3.43;;
15673;SDS011;7937;48.090;16.212;2022-12-07T14:40:13;4.43;;;3.13;;
15673;SDS011;7937;48.090;16.212;2022-12-07T14:43:19;4.67;;;3.50;;
15673;SDS011;7937;48.090;16.212;2022-12-07T14:46:21;5.47;;;4.07;;
15673;SDS011;7937;48.090;16.212;2022-12-07T14:49:23;4.10;;;3.43;;
15673;SDS011;7937;48.090;16.212;2022-12-07T14:52:33;5.77;;;4.13;;
15673;SDS011;7937;48.090;16.212;2022-12-07T14:55:55;4.30;;;3.80;;
15673;SDS011;7937;48.090;16.212;2022-12-07T14:58:57;5.20;;;3.43;;
15673;SDS011;7937;48.090;16.212;2022-12-07T15:01:59;3.87;;;3.37;;
15673;SDS011;7937;48.090;16.212;2022-12-07T15:05:01;4.80;;;3.70;;
15673;SDS011;7937;48.090;16.212;2022-12-07T15:08:04;5.20;;;3.87;;
15673;SDS011;7937;48.090;16.212;2022-12-07T15:11:09;5.50;;;4.03;;
15673;SDS011;7937;48.090;16.212;2022-12-07T15:14:14;7.50;;;4.93;;
15673;SDS011;7937;48.090;16.212;2022-12-07T15:17:16;6.30;;;4.77;;
15673;SDS011;7937;48.090;16.212;2022-12-07T15:20:31;5.80;;;4.47;;
15673;SDS011;7937;48.090;16.212;2022-12-07T15:23:33;5.63;;;4.87;;
15673;SDS011;7937;48.090;16.212;2022-12-07T15:26:36;5.97;;;4.47;;
15673;SDS011;7937;48.090;16.212;2022-12-07T15:29:39;6.43;;;4.77;;
15673;SDS011;7937;48.090;16.212;2022-12-07T15:32:41;6.37;;;4.60;;
15673;SDS011;7937;48.090;16.212;2022-12-07T15:35:43;6.10;;;4.53;;
15673;SDS011;7937;48.090;16.212;2022-12-07T15:38:47;5.93;;;4.67;;
15673;SDS011;7937;48.090;16.212;2022-12-07T15:42:09;5.37;;;4.43;;
15673;SDS011;7937;48.090;16.212;2022-12-07T15:45:11;5.83;;;4.43;;
15673;SDS011;7937;48.090;16.212;2022-12-07T15:48:14;6.70;;;4.63;;
15673;SDS011;7937;48.090;16.212;2022-12-07T15:51:28;6.00;;;4.83;;
15673;SDS011;7937;48.090;16.212;2022-12-07T15:54:31;6.20;;;4.63;;
15673;SDS011;7937;48.090;16.212;2022-12-07T15:57:34;5.07;;;4.10;;
15673;SDS011;7937;48.090;16.212;2022-12-07T16:00:38;5.73;;;4.33;;
15673;SDS011;7937;48.090;16.212;2022-12-07T16:03:41;6.67;;;4.23;;
15673;SDS011;7937;48.090;16.212;2022-12-07T16:06:43;6.77;;;4.37;;
15673;SDS011;7937;48.090;16.212;2022-12-07T16:09:46;4.73;;;3.80;;
15673;SDS011;7937;48.090;16.212;2022-12-07T16:12:48;4.40;;;3.63;;
15673;SDS011;7937;48.090;16.212;2022-12-07T16:15:50;5.83;;;3.90;;
15673;SDS011;7937;48.090;16.212;2022-12-07T16:18:52;3.90;;;3.43;;
15673;SDS011;7937;48.090;16.212;2022-12-07T16:21:54;6.13;;;3.80;;
15673;SDS011;7937;48.090;16.212;2022-12-07T16:24:56;5.03;;;3.63;;
15673;SDS011;7937;48.090;16.212;2022-12-07T16:27:58;3.97;;;3.23;;
15673;SDS011;7937;48.090;16.212;2022-12-07T16:31:08;6.07;;;3.77;;
15673;SDS011;7937;48.090;16.212;2022-12-07T16:34:13;3.80;;;3.20;;
15673;SDS011;7937;48.090;16.212;2022-12-07T16:37:16;4.97;;;3.90;;
15673;SDS011;7937;48.090;16.212;2022-12-07T16:40:18;5.23;;;3.73;;
15673;SDS011;7937;48.090;16.212;2022-12-07T16:43:20;4.00;;;3.40;;
15673;SDS011;7937;48.090;16.212;2022-12-07T16:46:22;4.67;;;3.90;;
15673;SDS011;7937;48.090;16.212;2022-12-07T16:49:24;5.50;;;3.83;;
15673;SDS011;7937;48.090;16.212;2022-12-07T16:52:26;5.97;;;4.27;;
15673;SDS011;7937;48.090;16.212;2022-12-07T16:55:29;4.90;;;3.60;;
15673;SDS011;7937;48.090;16.212;2022-12-07T16:58:31;4.87;;;3.70;;
15673;SDS011;7937;48.090;16.212;2022-12-07T17:01:33;9.00;;;5.10;;
15673;SDS011;7937;48.090;16.212;2022-12-07T17:04:36;7.30;;;5.00;;
15673;SDS011;7937;48.090;16.212;2022-12-07T17:07:41;9.03;;;5.50;;
15673;SDS011;7937;48.090;16.212;2022-12-07T17:10:43;7.23;;;5.43;;
15673;SDS011;7937;48.090;16.212;2022-12-07T17:13:46;7.30;;;5.63;;
15673;SDS011;7937;48.090;16.212;2022-12-07T17:17:07;8.07;;;5.50;;
15673;SDS011;7937;48.090;16.212;2022-12-07T17:20:11;6.77;;;5.17;;
15673;SDS011;7937;48.090;16.212;2022-12-07T17:23:14;7.63;;;5.93;;
15673;SDS011;7937;48.090;16.212;2022-12-07T17:26:18;7.93;;;6.03;;
15673;SDS011;7937;48.090;16.212;2022-12-07T17:29:22;8.30;;;6.10;;
15673;SDS011;7937;48.090;16.212;2022-12-07T17:32:25;7.50;;;5.57;;
15673;SDS011;7937;48.090;16.212;2022-12-07T17:35:28;7.37;;;5.17;;
15673;SDS011;7937;48.090;16.212;2022-12-07T17:38:30;7.40;;;5.20;;
15673;SDS011;7937;48.090;16.212;2022-12-07T17:41:33;8.67;;;5.67;;
15673;SDS011;7937;48.090;16.212;2022-12-07T17:44:54;7.13;;;5.27;;
15673;SDS011;7937;48.090;16.212;2022-12-07T17:47:56;7.57;;;5.10;;
15673;SDS011;7937;48.090;16.212;2022-12-07T17:50:59;6.33;;;5.30;;
15673;SDS011;7937;48.090;16.212;2022-12-07T17:54:20;7.87;;;4.93;;
15673;SDS011;7937;48.090;16.212;2022-12-07T17:57:23;6.23;;;4.63;;
15673;SDS011;7937;48.090;16.212;2022-12-07T18:00:25;7.00;;;4.93;;
15673;SDS011;7937;48.090;16.212;2022-12-07T18:03:28;7.70;;;4.60;;
15673;SDS011;7937;48.090;16.212;2022-12-07T18:06:31;6.23;;;5.03;;
15673;SDS011;7937;48.090;16.212;2022-12-07T18:09:34;6.00;;;4.87;;
15673;SDS011;7937;48.090;16.212;2022-12-07T18:12:37;5.97;;;4.50;;
15673;SDS011;7937;48.090;16.212;2022-12-07T18:15:54;7.67;;;4.93;;
15673;SDS011;7937;48.090;16.212;2022-12-07T18:18:59;6.77;;;4.90;;
15673;SDS011;7937;48.090;16.212;2022-12-07T18:22:03;7.80;;;4.70;;
15673;SDS011;7937;48.090;16.212;2022-12-07T18:25:06;6.27;;;4.87;;
15673;SDS011;7937;48.090;16.212;2022-12-07T18:28:09;6.57;;;4.60;;
15673;SDS011;7937;48.090;16.212;2022-12-07T18:31:12;4.33;;;3.63;;
15673;SDS011;7937;48.090;16.212;2022-12-07T18:34:17;5.63;;;4.27;;
15673;SDS011;7937;48.090;16.212;2022-12-07T18:37:20;4.80;;;3.67;;
15673;SDS011;7937;48.090;16.212;2022-12-07T18:40:29;6.67;;;4.63;;
15673;SDS011;7937;48.090;16.212;2022-12-07T18:43:32;5.30;;;3.90;;
15673;SDS011;7937;48.090;16.212;2022-12-07T18:46:35;6.63;;;4.17;;
15673;SDS011;7937;48.090;16.212;2022-12-07T18:49:37;6.23;;;4.50;;
15673;SDS011;7937;48.090;16.212;2022-12-07T18:52:40;6.50;;;4.77;;
15673;SDS011;7937;48.090;16.212;2022-12-07T18:55:43;6.80;;;4.53;;
15673;SDS011;7937;48.090;16.212;2022-12-07T18:58:52;5.47;;;4.20;;
15673;SDS011;7937;48.090;16.212;2022-12-07T19:02:15;5.97;;;4.20;;
15673;SDS011;7937;48.090;16.212;2022-12-07T19:05:20;5.97;;;4.37;;
15673;SDS011;7937;48.090;16.212;2022-12-07T19:08:24;5.80;;;3.67;;
15673;SDS011;7937;48.090;16.212;2022-12-07T19:11:28;6.03;;;4.13;;
15673;SDS011;7937;48.090;16.212;2022-12-07T19:14:51;7.10;;;4.37;;
15673;SDS011;7937;48.090;16.212;2022-12-07T19:17:56;5.43;;;3.70;;
15673;SDS011;7937;48.090;16.212;2022-12-07T19:21:02;6.17;;;3.63;;
15673;SDS011;7937;48.090;16.212;2022-12-07T19:24:05;5.37;;;4.10;;
15673;SDS011;7937;48.090;16.212;2022-12-07T19:27:09;5.10;;;4.00;;
15673;SDS011;7937;48.090;16.212;2022-12-07T19:30:14;6.00;;;4.10;;
15673;SDS011;7937;48.090;16.212;2022-12-07T19:33:17;5.40;;;3.90;;
15673;SDS011;7937;48.090;16.212;2022-12-07T19:36:20;4.87;;;3.50;;
15673;SDS011;7937;48.090;16.212;2022-12-07T19:39:23;5.13;;;3.80;;
15673;SDS011;7937;48.090;16.212;2022-12-07T19:42:26;7.93;;;4.37;;
15673;SDS011;7937;48.090;16.212;2022-12-07T19:45:29;5.17;;;4.37;;
15673;SDS011;7937;48.090;16.212;2022-12-07T19:48:37;6.77;;;4.70;;
15673;SDS011;7937;48.090;16.212;2022-12-07T19:51:40;5.00;;;4.10;;
15673;SDS011;7937;48.090;16.212;2022-12-07T19:54:44;5.43;;;3.93;;
15673;SDS011;7937;48.090;16.212;2022-12-07T19:57:52;6.13;;;3.63;;
15673;SDS011;7937;48.090;16.212;2022-12-07T20:00:54;5.67;;;4.40;;
15673;SDS011;7937;48.090;16.212;2022-12-07T20:04:03;4.43;;;3.63;;
15673;SDS011;7937;48.090;16.212;2022-12-07T20:07:08;6.13;;;3.97;;
15673;SDS011;7937;48.090;16.212;2022-12-07T20:10:11;4.53;;;3.60;;
15673;SDS011;7937;48.090;16.212;2022-12-07T20:13:20;4.60;;;3.33;;
15673;SDS011;7937;48.090;16.212;2022-12-07T20:16:35;4.77;;;3.30;;
15673;SDS011;7937;48.090;16.212;2022-12-07T20:19:38;4.87;;;3.30;;
15673;SDS011;7937;48.090;16.212;2022-12-07T20:22:42;4.87;;;3.40;;
15673;SDS011;7937;48.090;16.212;2022-12-07T20:25:45;4.80;;;3.20;;
15673;SDS011;7937;48.090;16.212;2022-12-07T20:28:47;4.67;;;3.50;;
15673;SDS011;7937;48.090;16.212;2022-12-07T20:31:50;6.57;;;3.37;;